sensor_id;sensor_type;location;lat;lon;timestamp;pressure;altitude;pressure_sealevel;temperature;humidity
63654;BME280;49809;47.418;19.080;2022-11-20T00:02:33;100190.34;;;1.23;92.85
63654;BME280;49809;47.418;19.080;2022-11-20T00:05:36;100190.19;;;1.31;92.80
63654;BME280;49809;47.418;19.080;2022-11-20T00:08:39;100189.94;;;1.26;92.83
63654;BME280;49809;47.418;19.080;2022-11-20T00:11:42;100186.34;;;1.27;93.07
63654;BME280;49809;47.418;19.080;2022-11-20T00:14:45;100188.38;;;1.25;92.52
63654;BME280;49809;47.418;19.080;2022-11-20T00:17:52;100190.75;;;1.20;92.96
63654;BME280;49809;47.418;19.080;2022-11-20T00:21:01;100197.31;;;1.16;93.48
63654;BME280;49809;47.418;19.080;2022-11-20T00:24:08;100205.34;;;1.15;92.59
63654;BME280;49809;47.418;19.080;2022-11-20T00:27:12;100235.97;;;1.06;92.98
63654;BME280;49809;47.418;19.080;2022-11-20T00:30:20;100232.12;;;1.02;93.00
63654;BME280;49809;47.418;19.080;2022-11-20T00:33:25;100205.47;;;1.00;93.35
63654;BME280;49809;47.418;19.080;2022-11-20T00:36:35;100222.72;;;1.01;93.39
63654;BME280;49809;47.418;19.080;2022-11-20T00:39:38;100236.34;;;1.03;93.70
63654;BME280;49809;47.418;19.080;2022-11-20T00:42:43;100229.53;;;1.02;94.06
63654;BME280;49809;47.418;19.080;2022-11-20T00:45:48;100214.34;;;1.12;93.57
63654;BME280;49809;47.418;19.080;2022-11-20T00:48:56;100216.72;;;1.07;93.72
63654;BME280;49809;47.418;19.080;2022-11-20T00:51:59;100206.87;;;1.03;94.26
63654;BME280;49809;47.418;19.080;2022-11-20T00:55:03;100204.03;;;0.98;94.74
63654;BME280;49809;47.418;19.080;2022-11-20T00:58:07;100196.19;;;0.91;94.84
63654;BME280;49809;47.418;19.080;2022-11-20T01:01:39;100198.78;;;0.91;94.66
63654;BME280;49809;47.418;19.080;2022-11-20T01:04:44;100190.09;;;0.77;96.27
63654;BME280;49809;47.418;19.080;2022-11-20T01:07:51;100192.16;;;0.88;96.08
63654;BME280;49809;47.418;19.080;2022-11-20T01:10:59;100202.97;;;0.85;96.03
63654;BME280;49809;47.418;19.080;2022-11-20T01:14:19;100204.19;;;0.90;96.06
63654;BME280;49809;47.418;19.080;2022-11-20T01:17:22;100197.47;;;0.74;95.59
63654;BME280;49809;47.418;19.080;2022-11-20T01:20:25;100199.56;;;0.85;96.16
63654;BME280;49809;47.418;19.080;2022-11-20T01:23:31;100197.66;;;0.72;96.11
63654;BME280;49809;47.418;19.080;2022-11-20T01:26:38;100194.19;;;0.93;95.32
63654;BME280;49809;47.418;19.080;2022-11-20T01:29:42;100209.72;;;0.80;96.18
63654;BME280;49809;47.418;19.080;2022-11-20T01:32:47;100209.25;;;0.70;97.16
63654;BME280;49809;47.418;19.080;2022-11-20T01:35:50;100202.44;;;0.69;98.19
63654;BME280;49809;47.418;19.080;2022-11-20T01:39:00;100208.53;;;0.82;98.31
63654;BME280;49809;47.418;19.080;2022-11-20T01:42:03;100200.94;;;0.81;99.00
63654;BME280;49809;47.418;19.080;2022-11-20T01:52:33;100191.50;;;0.80;99.76
63654;BME280;49809;47.418;19.080;2022-11-20T01:55:47;100188.50;;;0.83;100.00
63654;BME280;49809;47.418;19.080;2022-11-20T01:58:57;100175.22;;;0.78;100.00
63654;BME280;49809;47.418;19.080;2022-11-20T02:02:00;100189.75;;;0.87;100.00
63654;BME280;49809;47.418;19.080;2022-11-20T02:05:14;100180.97;;;0.95;100.00
63654;BME280;49809;47.418;19.080;2022-11-20T02:08:19;100174.94;;;0.94;100.00
63654;BME280;49809;47.418;19.080;2022-11-20T02:11:22;100194.34;;;0.85;100.00
63654;BME280;49809;47.418;19.080;2022-11-20T02:14:27;100201.41;;;0.91;100.00
63654;BME280;49809;47.418;19.080;2022-11-20T02:17:30;100205.50;;;0.79;100.00
63654;BME280;49809;47.418;19.080;2022-11-20T02:20:33;100202.78;;;0.87;100.00
63654;BME280;49809;47.418;19.080;2022-11-20T02:23:39;100191.91;;;0.83;100.00
63654;BME280;49809;47.418;19.080;2022-11-20T02:27:10;100196.41;;;0.96;100.00
63654;BME280;49809;47.418;19.080;2022-11-20T02:30:20;100202.22;;;0.98;100.00
63654;BME280;49809;47.418;19.080;2022-11-20T02:33:22;100196.59;;;0.95;100.00
63654;BME280;49809;47.418;19.080;2022-11-20T02:36:27;100180.16;;;0.94;100.00
63654;BME280;49809;47.418;19.080;2022-11-20T02:39:51;100173.78;;;0.97;100.00
63654;BME280;49809;47.418;19.080;2022-11-20T02:42:56;100179.34;;;0.87;100.00
63654;BME280;49809;47.418;19.080;2022-11-20T02:46:01;100175.59;;;1.03;100.00
63654;BME280;49809;47.418;19.080;2022-11-20T02:49:07;100173.59;;;1.05;100.00
63654;BME280;49809;47.418;19.080;2022-11-20T02:52:10;100182.19;;;0.99;100.00
63654;BME280;49809;47.418;19.080;2022-11-20T02:55:14;100183.75;;;0.93;100.00
63654;BME280;49809;47.418;19.080;2022-11-20T02:58:23;100169.78;;;1.01;100.00
63654;BME280;49809;47.418;19.080;2022-11-20T03:01:26;100158.59;;;1.13;100.00
63654;BME280;49809;47.418;19.080;2022-11-20T03:04:29;100153.41;;;1.13;100.00
63654;BME280;49809;47.418;19.080;2022-11-20T03:07:34;100144.97;;;1.11;100.00
63654;BME280;49809;47.418;19.080;2022-11-20T03:10:40;100142.56;;;1.10;100.00
63654;BME280;49809;47.418;19.080;2022-11-20T03:13:43;100147.78;;;1.10;100.00
63654;BME280;49809;47.418;19.080;2022-11-20T03:16:47;100148.75;;;1.09;100.00
63654;BME280;49809;47.418;19.080;2022-11-20T03:19:50;100149.00;;;1.14;100.00
63654;BME280;49809;47.418;19.080;2022-11-20T03:22:55;100161.84;;;1.15;100.00
63654;BME280;49809;47.418;19.080;2022-11-20T03:26:09;100173.03;;;1.09;100.00
63654;BME280;49809;47.418;19.080;2022-11-20T03:29:14;100169.84;;;1.14;100.00
63654;BME280;49809;47.418;19.080;2022-11-20T03:32:17;100182.84;;;1.07;100.00
63654;BME280;49809;47.418;19.080;2022-11-20T03:35:23;100183.91;;;1.19;100.00
63654;BME280;49809;47.418;19.080;2022-11-20T03:38:29;100175.47;;;1.17;100.00
63654;BME280;49809;47.418;19.080;2022-11-20T03:41:39;100168.63;;;1.16;100.00
63654;BME280;49809;47.418;19.080;2022-11-20T03:44:43;100162.66;;;1.22;100.00
63654;BME280;49809;47.418;19.080;2022-11-20T03:47:48;100148.41;;;1.18;100.00
63654;BME280;49809;47.418;19.080;2022-11-20T03:50:54;100152.47;;;1.27;100.00
63654;BME280;49809;47.418;19.080;2022-11-20T03:54:10;100154.47;;;1.32;100.00
63654;BME280;49809;47.418;19.080;2022-11-20T03:57:17;100153.03;;;1.23;100.00
63654;BME280;49809;47.418;19.080;2022-11-20T04:00:20;100146.28;;;1.35;100.00
63654;BME280;49809;47.418;19.080;2022-11-20T04:03:23;100144.84;;;1.33;100.00
63654;BME280;49809;47.418;19.080;2022-11-20T04:06:29;100139.41;;;1.27;100.00
63654;BME280;49809;47.418;19.080;2022-11-20T04:09:33;100141.44;;;1.25;100.00
63654;BME280;49809;47.418;19.080;2022-11-20T04:12:36;100129.00;;;1.27;100.00
63654;BME280;49809;47.418;19.080;2022-11-20T04:15:39;100124.97;;;1.25;99.66
63654;BME280;49809;47.418;19.080;2022-11-20T04:18:43;100116.84;;;1.07;99.91
63654;BME280;49809;47.418;19.080;2022-11-20T04:21:53;100110.97;;;1.33;99.63
63654;BME280;49809;47.418;19.080;2022-11-20T04:24:59;100106.91;;;1.23;99.76
63654;BME280;49809;47.418;19.080;2022-11-20T04:28:08;100122.59;;;1.30;99.87
63654;BME280;49809;47.418;19.080;2022-11-20T04:31:15;100124.22;;;1.38;100.00
63654;BME280;49809;47.418;19.080;2022-11-20T04:34:38;100125.37;;;1.28;99.86
63654;BME280;49809;47.418;19.080;2022-11-20T04:37:43;100122.16;;;1.26;98.90
63654;BME280;49809;47.418;19.080;2022-11-20T04:40:49;100133.00;;;1.23;98.16
63654;BME280;49809;47.418;19.080;2022-11-20T04:44:03;100132.37;;;1.21;98.21
63654;BME280;49809;47.418;19.080;2022-11-20T04:47:11;100126.16;;;1.22;98.52
63654;BME280;49809;47.418;19.080;2022-11-20T04:50:15;100122.97;;;1.20;98.31
63654;BME280;49809;47.418;19.080;2022-11-20T04:53:19;100097.47;;;1.22;97.45
63654;BME280;49809;47.418;19.080;2022-11-20T04:56:24;100103.47;;;1.16;97.65
63654;BME280;49809;47.418;19.080;2022-11-20T04:59:29;100098.47;;;1.21;98.01
63654;BME280;49809;47.418;19.080;2022-11-20T05:02:33;100093.69;;;1.25;97.76
63654;BME280;49809;47.418;19.080;2022-11-20T05:05:42;100095.88;;;1.15;98.55
63654;BME280;49809;47.418;19.080;2022-11-20T05:08:45;100108.91;;;1.21;98.43
63654;BME280;49809;47.418;19.080;2022-11-20T05:11:49;100119.19;;;1.29;99.04
63654;BME280;49809;47.418;19.080;2022-11-20T05:14:54;100115.94;;;1.27;99.29
63654;BME280;49809;47.418;19.080;2022-11-20T05:17:57;100103.53;;;1.29;99.51
63654;BME280;49809;47.418;19.080;2022-11-20T05:21:03;100104.97;;;1.39;100.00
63654;BME280;49809;47.418;19.080;2022-11-20T05:24:06;100096.09;;;1.26;100.00
63654;BME280;49809;47.418;19.080;2022-11-20T05:27:12;100082.88;;;1.35;100.00
63654;BME280;49809;47.418;19.080;2022-11-20T05:30:15;100088.88;;;1.28;100.00
63654;BME280;49809;47.418;19.080;2022-11-20T05:33:20;100074.00;;;1.22;100.00
63654;BME280;49809;47.418;19.080;2022-11-20T05:36:24;100061.59;;;1.24;100.00
63654;BME280;49809;47.418;19.080;2022-11-20T05:39:26;100071.63;;;1.21;100.00
63654;BME280;49809;47.418;19.080;2022-11-20T05:42:31;100085.06;;;1.24;100.00
63654;BME280;49809;47.418;19.080;2022-11-20T05:45:33;100098.88;;;1.18;100.00
63654;BME280;49809;47.418;19.080;2022-11-20T05:48:40;100092.66;;;1.19;100.00
63654;BME280;49809;47.418;19.080;2022-11-20T05:51:45;100081.66;;;1.24;100.00
63654;BME280;49809;47.418;19.080;2022-11-20T05:54:50;100076.03;;;1.20;100.00
63654;BME280;49809;47.418;19.080;2022-11-20T05:57:54;100081.47;;;1.32;100.00
63654;BME280;49809;47.418;19.080;2022-11-20T06:04:15;100099.94;;;1.30;100.00
63654;BME280;49809;47.418;19.080;2022-11-20T06:07:17;100096.75;;;1.35;100.00
63654;BME280;49809;47.418;19.080;2022-11-20T06:10:23;100097.31;;;1.37;100.00
63654;BME280;49809;47.418;19.080;2022-11-20T06:13:25;100120.41;;;1.34;100.00
63654;BME280;49809;47.418;19.080;2022-11-20T06:16:28;100105.37;;;1.42;100.00
63654;BME280;49809;47.418;19.080;2022-11-20T06:19:33;100082.09;;;1.41;100.00
63654;BME280;49809;47.418;19.080;2022-11-20T06:22:36;100088.53;;;1.45;100.00
63654;BME280;49809;47.418;19.080;2022-11-20T06:25:41;100094.97;;;1.49;100.00
63654;BME280;49809;47.418;19.080;2022-11-20T06:28:44;100097.19;;;1.58;100.00
63654;BME280;49809;47.418;19.080;2022-11-20T06:31:55;100113.44;;;1.60;100.00
63654;BME280;49809;47.418;19.080;2022-11-20T06:35:00;100122.66;;;1.56;99.24
63654;BME280;49809;47.418;19.080;2022-11-20T06:38:02;100135.31;;;1.66;98.24
63654;BME280;49809;47.418;19.080;2022-11-20T06:41:06;100144.38;;;1.70;97.55
63654;BME280;49809;47.418;19.080;2022-11-20T06:44:09;100144.00;;;1.73;97.05
63654;BME280;49809;47.418;19.080;2022-11-20T06:47:12;100143.59;;;1.83;96.76
63654;BME280;49809;47.418;19.080;2022-11-20T06:50:15;100146.03;;;1.97;97.27
63654;BME280;49809;47.418;19.080;2022-11-20T06:53:18;100153.69;;;2.05;96.02
63654;BME280;49809;47.418;19.080;2022-11-20T06:56:21;100138.84;;;2.12;95.50
63654;BME280;49809;47.418;19.080;2022-11-20T06:59:25;100121.75;;;2.16;95.41
63654;BME280;49809;47.418;19.080;2022-11-20T07:02:28;100124.34;;;2.30;95.21
63654;BME280;49809;47.418;19.080;2022-11-20T07:05:32;100129.97;;;2.40;94.37
63654;BME280;49809;47.418;19.080;2022-11-20T07:08:35;100126.78;;;2.51;93.59
63654;BME280;49809;47.418;19.080;2022-11-20T07:11:47;100115.69;;;2.49;92.97
63654;BME280;49809;47.418;19.080;2022-11-20T07:14:50;100123.72;;;2.67;92.51
63654;BME280;49809;47.418;19.080;2022-11-20T07:17:53;100128.34;;;2.65;92.66
63654;BME280;49809;47.418;19.080;2022-11-20T07:21:02;100129.94;;;2.73;93.30
63654;BME280;49809;47.418;19.080;2022-11-20T07:24:10;100132.75;;;2.71;91.66
63654;BME280;49809;47.418;19.080;2022-11-20T07:27:14;100130.75;;;2.80;91.75
63654;BME280;49809;47.418;19.080;2022-11-20T07:30:18;100136.53;;;2.88;91.97
63654;BME280;49809;47.418;19.080;2022-11-20T07:33:20;100144.38;;;2.95;91.15
63654;BME280;49809;47.418;19.080;2022-11-20T07:36:25;100155.66;;;2.89;91.89
63654;BME280;49809;47.418;19.080;2022-11-20T07:39:28;100154.44;;;2.91;92.93
63654;BME280;49809;47.418;19.080;2022-11-20T07:42:31;100155.25;;;2.85;95.18
63654;BME280;49809;47.418;19.080;2022-11-20T07:45:40;100156.47;;;2.89;95.79
63654;BME280;49809;47.418;19.080;2022-11-20T07:48:46;100168.09;;;2.87;97.07
63654;BME280;49809;47.418;19.080;2022-11-20T07:51:53;100162.69;;;2.88;96.56
63654;BME280;49809;47.418;19.080;2022-11-20T07:54:57;100163.72;;;2.81;97.40
63654;BME280;49809;47.418;19.080;2022-11-20T07:58:04;100165.72;;;2.79;97.36
63654;BME280;49809;47.418;19.080;2022-11-20T08:01:07;100164.91;;;2.78;98.06
63654;BME280;49809;47.418;19.080;2022-11-20T08:04:15;100145.37;;;2.87;99.45
63654;BME280;49809;47.418;19.080;2022-11-20T08:07:20;100144.56;;;2.93;100.00
63654;BME280;49809;47.418;19.080;2022-11-20T08:10:24;100145.97;;;3.02;100.00
63654;BME280;49809;47.418;19.080;2022-11-20T08:13:29;100140.31;;;3.05;98.89
63654;BME280;49809;47.418;19.080;2022-11-20T08:17:11;100152.63;;;2.92;98.29
63654;BME280;49809;47.418;19.080;2022-11-20T08:20:14;100148.97;;;3.06;99.27
63654;BME280;49809;47.418;19.080;2022-11-20T08:23:39;100138.66;;;3.18;99.23
63654;BME280;49809;47.418;19.080;2022-11-20T08:26:45;100136.25;;;3.23;98.99
63654;BME280;49809;47.418;19.080;2022-11-20T08:29:48;100140.03;;;3.33;99.31
63654;BME280;49809;47.418;19.080;2022-11-20T08:32:50;100136.16;;;3.42;99.52
63654;BME280;49809;47.418;19.080;2022-11-20T08:36:01;100142.50;;;3.60;99.86
63654;BME280;49809;47.418;19.080;2022-11-20T08:39:03;100148.47;;;3.73;98.97
63654;BME280;49809;47.418;19.080;2022-11-20T08:42:09;100152.03;;;3.85;97.57
63654;BME280;49809;47.418;19.080;2022-11-20T08:45:12;100150.06;;;3.74;97.07
63654;BME280;49809;47.418;19.080;2022-11-20T08:48:35;100140.25;;;4.01;97.06
63654;BME280;49809;47.418;19.080;2022-11-20T08:51:39;100145.53;;;3.94;96.17
63654;BME280;49809;47.418;19.080;2022-11-20T08:54:47;100145.69;;;4.00;94.82
63654;BME280;49809;47.418;19.080;2022-11-20T08:57:51;100161.06;;;4.21;93.26
63654;BME280;49809;47.418;19.080;2022-11-20T09:00:55;100168.78;;;4.16;92.51
63654;BME280;49809;47.418;19.080;2022-11-20T09:03:58;100176.13;;;4.01;94.69
63654;BME280;49809;47.418;19.080;2022-11-20T09:07:02;100189.16;;;3.76;96.42
63654;BME280;49809;47.418;19.080;2022-11-20T09:10:06;100173.13;;;4.22;94.70
63654;BME280;49809;47.418;19.080;2022-11-20T09:13:33;100175.00;;;4.15;95.17
63654;BME280;49809;47.418;19.080;2022-11-20T09:16:50;100173.88;;;4.35;94.45
63654;BME280;49809;47.418;19.080;2022-11-20T09:19:53;100183.25;;;4.18;94.12
63654;BME280;49809;47.418;19.080;2022-11-20T09:22:57;100195.72;;;4.23;94.83
63654;BME280;49809;47.418;19.080;2022-11-20T09:26:12;100189.59;;;4.35;92.17
63654;BME280;49809;47.418;19.080;2022-11-20T09:29:21;100183.09;;;4.38;93.86
63654;BME280;49809;47.418;19.080;2022-11-20T09:32:25;100175.41;;;4.43;94.15
63654;BME280;49809;47.418;19.080;2022-11-20T09:35:30;100163.09;;;4.44;94.35
63654;BME280;49809;47.418;19.080;2022-11-20T09:38:36;100161.63;;;4.54;93.15
63654;BME280;49809;47.418;19.080;2022-11-20T09:56:13;100157.72;;;4.81;92.69
63654;BME280;49809;47.418;19.080;2022-11-20T09:59:43;100149.84;;;4.81;92.88
63654;BME280;49809;47.418;19.080;2022-11-20T10:03:06;100146.97;;;5.08;93.98
63654;BME280;49809;47.418;19.080;2022-11-20T10:06:24;100142.94;;;5.23;92.43
63654;BME280;49809;47.418;19.080;2022-11-20T10:09:31;100140.97;;;5.37;92.31
63654;BME280;49809;47.418;19.080;2022-11-20T10:16:39;100126.25;;;5.36;92.17
63654;BME280;49809;47.418;19.080;2022-11-20T10:20:19;100116.69;;;5.42;91.39
63654;BME280;49809;47.418;19.080;2022-11-20T10:23:49;100108.28;;;5.03;91.49
63654;BME280;49809;47.418;19.080;2022-11-20T10:27:02;100100.66;;;5.32;92.68
63654;BME280;49809;47.418;19.080;2022-11-20T10:30:12;100110.12;;;5.62;91.54
63654;BME280;49809;47.418;19.080;2022-11-20T10:33:24;100104.78;;;6.10;87.40
63654;BME280;49809;47.418;19.080;2022-11-20T10:36:49;100113.88;;;5.85;87.66
63654;BME280;49809;47.418;19.080;2022-11-20T10:43:18;100107.84;;;5.96;89.68
63654;BME280;49809;47.418;19.080;2022-11-20T10:46:45;100107.22;;;5.82;88.98
63654;BME280;49809;47.418;19.080;2022-11-20T10:50:03;100102.72;;;6.01;88.58
63654;BME280;49809;47.418;19.080;2022-11-20T10:56:53;100100.09;;;6.01;90.02
63654;BME280;49809;47.418;19.080;2022-11-20T11:00:09;100102.28;;;6.16;89.78
63654;BME280;49809;47.418;19.080;2022-11-20T11:03:22;100114.41;;;5.75;89.78
63654;BME280;49809;47.418;19.080;2022-11-20T11:06:29;100128.97;;;5.59;90.76
63654;BME280;49809;47.418;19.080;2022-11-20T11:09:46;100128.47;;;6.22;89.09
63654;BME280;49809;47.418;19.080;2022-11-20T11:12:50;100134.88;;;6.49;87.84
63654;BME280;49809;47.418;19.080;2022-11-20T11:15:56;100130.44;;;6.50;86.99
63654;BME280;49809;47.418;19.080;2022-11-20T11:19:23;100135.47;;;6.51;87.11
63654;BME280;49809;47.418;19.080;2022-11-20T11:23:26;100130.78;;;6.77;86.47
63654;BME280;49809;47.418;19.080;2022-11-20T11:26:35;100119.31;;;6.94;84.46
63654;BME280;49809;47.418;19.080;2022-11-20T11:29:42;100104.31;;;6.95;84.81
63654;BME280;49809;47.418;19.080;2022-11-20T11:32:46;100102.72;;;6.94;84.23
63654;BME280;49809;47.418;19.080;2022-11-20T11:36:04;100114.63;;;6.96;84.38
63654;BME280;49809;47.418;19.080;2022-11-20T11:39:20;100104.22;;;6.90;85.96
63654;BME280;49809;47.418;19.080;2022-11-20T11:42:33;100107.38;;;7.15;83.46
63654;BME280;49809;47.418;19.080;2022-11-20T11:45:54;100101.09;;;7.16;83.84
63654;BME280;49809;47.418;19.080;2022-11-20T11:52:15;100087.63;;;7.01;85.57
63654;BME280;49809;47.418;19.080;2022-11-20T11:55:32;100085.97;;;7.12;84.80
63654;BME280;49809;47.418;19.080;2022-11-20T11:58:51;100082.69;;;7.05;83.78
63654;BME280;49809;47.418;19.080;2022-11-20T12:02:01;100084.19;;;6.89;83.20
63654;BME280;49809;47.418;19.080;2022-11-20T12:05:43;100083.94;;;7.02;83.12
63654;BME280;49809;47.418;19.080;2022-11-20T12:08:52;100088.88;;;6.98;82.22
63654;BME280;49809;47.418;19.080;2022-11-20T12:12:08;100085.94;;;7.23;81.93
63654;BME280;49809;47.418;19.080;2022-11-20T12:15:27;100068.91;;;7.42;82.73
63654;BME280;49809;47.418;19.080;2022-11-20T12:18:32;100069.69;;;7.55;83.37
63654;BME280;49809;47.418;19.080;2022-11-20T12:25:53;100076.34;;;7.46;83.10
63654;BME280;49809;47.418;19.080;2022-11-20T12:29:20;100071.16;;;7.22;84.09
63654;BME280;49809;47.418;19.080;2022-11-20T12:33:19;100071.25;;;6.99;83.51
63654;BME280;49809;47.418;19.080;2022-11-20T12:37:14;100071.44;;;7.09;83.99
63654;BME280;49809;47.418;19.080;2022-11-20T13:03:03;100085.47;;;6.75;84.10
63654;BME280;49809;47.418;19.080;2022-11-20T13:06:30;100087.91;;;6.53;84.01
63654;BME280;49809;47.418;19.080;2022-11-20T13:10:15;100080.53;;;6.78;83.79
63654;BME280;49809;47.418;19.080;2022-11-20T13:17:15;100080.09;;;6.70;82.84
63654;BME280;49809;47.418;19.080;2022-11-20T13:20:20;100088.22;;;6.68;83.73
63654;BME280;49809;47.418;19.080;2022-11-20T13:24:04;100086.75;;;6.49;84.00
63654;BME280;49809;47.418;19.080;2022-11-20T13:27:19;100076.12;;;6.67;83.55
63654;BME280;49809;47.418;19.080;2022-11-20T13:30:26;100065.59;;;6.55;84.10
63654;BME280;49809;47.418;19.080;2022-11-20T13:34:35;100069.91;;;6.73;84.19
63654;BME280;49809;47.418;19.080;2022-11-20T13:37:38;100068.41;;;6.89;83.05
63654;BME280;49809;47.418;19.080;2022-11-20T13:41:02;100056.38;;;6.93;82.76
63654;BME280;49809;47.418;19.080;2022-11-20T13:44:33;100056.28;;;6.88;83.48
63654;BME280;49809;47.418;19.080;2022-11-20T13:47:47;100047.59;;;6.87;82.77
63654;BME280;49809;47.418;19.080;2022-11-20T13:51:15;100044.53;;;6.79;82.66
63654;BME280;49809;47.418;19.080;2022-11-20T14:01:53;100040.25;;;6.26;85.78
63654;BME280;49809;47.418;19.080;2022-11-20T14:05:01;100045.84;;;6.30;85.42
63654;BME280;49809;47.418;19.080;2022-11-20T14:08:06;100032.25;;;6.09;85.81
63654;BME280;49809;47.418;19.080;2022-11-20T14:14:26;100042.66;;;6.04;86.88
63654;BME280;49809;47.418;19.080;2022-11-20T14:17:35;100043.66;;;5.92;87.83
63654;BME280;49809;47.418;19.080;2022-11-20T14:21:00;100042.50;;;5.88;87.40
63654;BME280;49809;47.418;19.080;2022-11-20T14:24:09;100055.47;;;5.71;87.22
63654;BME280;49809;47.418;19.080;2022-11-20T14:27:37;100059.47;;;5.74;87.23
63654;BME280;49809;47.418;19.080;2022-11-20T14:30:47;100059.81;;;5.65;87.58
63654;BME280;49809;47.418;19.080;2022-11-20T14:33:55;100062.16;;;5.55;88.41
63654;BME280;49809;47.418;19.080;2022-11-20T14:37:05;100065.34;;;5.46;89.72
63654;BME280;49809;47.418;19.080;2022-11-20T14:40:29;100073.75;;;5.36;89.90
63654;BME280;49809;47.418;19.080;2022-11-20T14:43:34;100074.03;;;5.28;89.95
63654;BME280;49809;47.418;19.080;2022-11-20T14:46:40;100078.31;;;5.11;90.97
63654;BME280;49809;47.418;19.080;2022-11-20T14:49:45;100074.66;;;5.12;91.18
63654;BME280;49809;47.418;19.080;2022-11-20T14:52:58;100076.84;;;4.97;92.92
63654;BME280;49809;47.418;19.080;2022-11-20T14:56:05;100084.66;;;5.03;91.86
63654;BME280;49809;47.418;19.080;2022-11-20T14:59:10;100089.53;;;5.00;91.18
63654;BME280;49809;47.418;19.080;2022-11-20T15:02:18;100091.50;;;4.86;91.96
63654;BME280;49809;47.418;19.080;2022-11-20T15:05:36;100102.06;;;4.79;93.02
63654;BME280;49809;47.418;19.080;2022-11-20T15:08:52;100091.84;;;4.71;92.45
63654;BME280;49809;47.418;19.080;2022-11-20T15:12:20;100089.78;;;4.55;93.09
63654;BME280;49809;47.418;19.080;2022-11-20T15:15:53;100097.66;;;4.55;94.30
63654;BME280;49809;47.418;19.080;2022-11-20T15:18:57;100099.94;;;4.27;94.92
63654;BME280;49809;47.418;19.080;2022-11-20T15:22:10;100099.09;;;4.08;95.90
63654;BME280;49809;47.418;19.080;2022-11-20T15:25:16;100102.81;;;3.94;97.56
63654;BME280;49809;47.418;19.080;2022-11-20T15:28:33;100099.47;;;3.87;97.80
63654;BME280;49809;47.418;19.080;2022-11-20T15:31:42;100096.38;;;3.65;98.81
63654;BME280;49809;47.418;19.080;2022-11-20T15:34:48;100101.91;;;3.50;99.94
63654;BME280;49809;47.418;19.080;2022-11-20T15:37:59;100101.97;;;3.37;100.00
63654;BME280;49809;47.418;19.080;2022-11-20T15:41:02;100107.47;;;3.23;100.00
63654;BME280;49809;47.418;19.080;2022-11-20T15:44:08;100110.53;;;3.13;100.00
63654;BME280;49809;47.418;19.080;2022-11-20T15:47:13;100118.19;;;3.01;100.00
63654;BME280;49809;47.418;19.080;2022-11-20T15:50:20;100114.63;;;2.89;100.00
63654;BME280;49809;47.418;19.080;2022-11-20T15:53:25;100109.41;;;2.76;100.00
63654;BME280;49809;47.418;19.080;2022-11-20T15:56:28;100111.06;;;2.71;100.00
63654;BME280;49809;47.418;19.080;2022-11-20T15:59:42;100106.22;;;2.68;100.00
63654;BME280;49809;47.418;19.080;2022-11-20T16:02:46;100112.88;;;2.57;100.00
63654;BME280;49809;47.418;19.080;2022-11-20T16:05:51;100104.25;;;2.43;100.00
63654;BME280;49809;47.418;19.080;2022-11-20T16:08:56;100098.81;;;2.38;100.00
63654;BME280;49809;47.418;19.080;2022-11-20T16:12:09;100100.03;;;2.42;100.00
63654;BME280;49809;47.418;19.080;2022-11-20T16:15:33;100108.88;;;2.35;100.00
63654;BME280;49809;47.418;19.080;2022-11-20T16:18:56;100109.09;;;2.27;100.00
63654;BME280;49809;47.418;19.080;2022-11-20T16:22:00;100102.47;;;2.17;100.00
63654;BME280;49809;47.418;19.080;2022-11-20T16:25:07;100100.84;;;2.23;100.00
63654;BME280;49809;47.418;19.080;2022-11-20T16:28:10;100102.28;;;2.12;100.00
63654;BME280;49809;47.418;19.080;2022-11-20T16:31:22;100101.03;;;2.08;100.00
63654;BME280;49809;47.418;19.080;2022-11-20T16:34:26;100104.69;;;2.07;100.00
63654;BME280;49809;47.418;19.080;2022-11-20T16:37:30;100102.28;;;2.06;100.00
63654;BME280;49809;47.418;19.080;2022-11-20T16:40:32;100098.66;;;2.07;100.00
63654;BME280;49809;47.418;19.080;2022-11-20T16:43:38;100088.22;;;2.07;100.00
63654;BME280;49809;47.418;19.080;2022-11-20T16:46:45;100083.19;;;2.05;100.00
63654;BME280;49809;47.418;19.080;2022-11-20T16:50:09;100091.00;;;2.05;100.00
63654;BME280;49809;47.418;19.080;2022-11-20T16:53:12;100089.81;;;2.01;100.00
63654;BME280;49809;47.418;19.080;2022-11-20T16:56:21;100088.19;;;1.94;100.00
63654;BME280;49809;47.418;19.080;2022-11-20T16:59:25;100083.38;;;1.84;100.00
63654;BME280;49809;47.418;19.080;2022-11-20T17:02:39;100081.34;;;1.80;100.00
63654;BME280;49809;47.418;19.080;2022-11-20T17:05:42;100084.56;;;1.68;100.00
63654;BME280;49809;47.418;19.080;2022-11-20T17:08:50;100082.75;;;1.62;100.00
63654;BME280;49809;47.418;19.080;2022-11-20T17:11:54;100078.53;;;1.55;100.00
63654;BME280;49809;47.418;19.080;2022-11-20T17:15:11;100076.91;;;1.47;100.00
63654;BME280;49809;47.418;19.080;2022-11-20T17:18:14;100071.06;;;1.39;100.00
63654;BME280;49809;47.418;19.080;2022-11-20T17:21:18;100062.81;;;1.28;100.00
63654;BME280;49809;47.418;19.080;2022-11-20T17:24:23;100058.78;;;1.19;100.00
63654;BME280;49809;47.418;19.080;2022-11-20T17:28:02;100055.94;;;1.14;100.00
63654;BME280;49809;47.418;19.080;2022-11-20T17:31:11;100060.72;;;1.04;100.00
63654;BME280;49809;47.418;19.080;2022-11-20T17:34:20;100047.69;;;1.04;100.00
63654;BME280;49809;47.418;19.080;2022-11-20T17:37:23;100044.25;;;0.91;100.00
63654;BME280;49809;47.418;19.080;2022-11-20T17:40:32;100041.00;;;0.88;100.00
63654;BME280;49809;47.418;19.080;2022-11-20T17:43:39;100033.59;;;0.85;100.00
63654;BME280;49809;47.418;19.080;2022-11-20T17:46:41;100030.94;;;0.79;100.00